Alton, Maine
Current Conditions -  °F | °C
As of 10:53 PM on Tuesday 21 Oct 2014 (Local Time) from KBGR Reporting Station
Light Rain Light Rain  
Wind Chill: 41°   Ceiling: 600
Heat Index: 46°   Visibility: 6mi
Dew Point: 44°   Wind: 10mph
Humidity: 93%   Direction: 20°NNE
Pressure: 30.17"   Gusts: NA
Location:  45.0236°N, 68.7394°W
Report Text: KBGR 220253Z 02009KT 6SM -RA BR OVC006 08/07 A3017 RMK AO2 RAE04B11 SLP218 P0001 60002 T00780067 53011
Loading
Personal Weather Stations






























Interactive Weather Map
Tropical Storm Tracking
New forecast layout! Learn more

10-Day Weather Forecast

Advertisements
Track Severe Weather on mobile